Conway, Missouri
Current Conditions -  °F | °C
As of 2:55 PM on Thursday 20 Nov 2014 (Local Time) from KH21 Reporting Station
Clear Clear  
Wind Chill:   Ceiling: Unl
Heat Index:   Visibility: 10mi
Dew Point: -5°   Wind: 0mph
Humidity: 46%   Direction: NA
Pressure: 30.18"   Gusts: NA
Location:  37.5°N, 92.82°W
Report Text: KH21 202055Z AUTO 00000KT 10SM CLR 06/M05 A3018 RMK AO2
Loading
Personal Weather Stations






























Interactive Weather Map New forecast layout! Learn more

10-Day Weather Forecast

Advertisements
Track Severe Weather on mobile